Time;durP1;ratioP1;P1;durP2;ratioP2;P2;SDS_P1;SDS_P2;PMS_P1;PMS_P2;Temp;Humidity;BMP_temperature;BMP_pressure;BME280_temperature;BME280_humidity;BME280_pressure;Samples;Min_cycle;Max_cycle;Signal;HPM_P1;HPM_P2
2023/05/25 00:01:34;;;;;;;13.80;9.50;;;;;;;12.64;82.04;99312.02;225420;1280;25372;-75
2023/05/25 00:06:41;;;;;;;13.80;10.40;;;;;;;12.63;82.08;99311.48;225345;1283;22558;-75
2023/05/25 00:11:44;;;;;;;13.00;10.10;;;;;;;12.62;82.07;99313.77;225411;1278;22559;-75
2023/05/25 00:16:50;;;;;;;12.10;10.00;;;;;;;12.61;81.81;99318.70;225364;1281;22549;-75
2023/05/25 00:21:53;;;;;;;14.40;10.50;;;;;;;12.60;81.77;99320.77;225358;1283;22550;-75
2023/05/25 00:27:00;;;;;;;12.40;11.10;;;;;;;12.60;81.83;99327.39;225387;1283;25312;-75
2023/05/25 00:32:05;;;;;;;11.20;9.80;;;;;;;12.60;81.94;99321.35;225378;1281;22581;-75
2023/05/25 00:37:07;;;;;;;12.30;9.50;;;;;;;12.60;81.58;99316.53;225454;1280;24929;-75
2023/05/25 00:42:23;;;;;;;11.80;9.50;;;;;;;12.57;81.46;99319.08;225426;1283;22554;-75
2023/05/25 00:47:26;;;;;;;12.90;10.30;;;;;;;12.57;81.50;99323.02;225333;1283;22542;-75
2023/05/25 00:52:28;;;;;;;13.90;9.90;;;;;;;12.56;81.42;99323.33;225352;1283;22526;-74
2023/05/25 00:57:56;;;;;;;;;;;;;;;;;;;;;
2023/05/25 01:03:13;;;;;;;14.30;10.70;;;;;;;12.55;81.29;99318.48;225402;1281;22523;-75
2023/05/25 01:08:27;;;;;;;;;;;;;;;;;;;;;
2023/05/25 01:13:33;;;;;;;12.30;9.70;;;;;;;12.57;81.53;99317.02;225418;1283;22539;-75
2023/05/25 01:18:38;;;;;;;13.90;9.50;;;;;;;12.57;81.49;99314.50;225360;1283;22563;-75
2023/05/25 01:23:53;;;;;;;17.40;9.90;;;;;;;12.58;81.50;99313.50;225364;1281;22554;-75
2023/05/25 01:29:00;;;;;;;17.90;9.90;;;;;;;12.60;81.57;99315.09;225325;1281;22644;-76
2023/05/25 01:34:08;;;;;;;11.50;9.40;;;;;;;12.60;81.60;99322.61;225424;1283;22536;-74
2023/05/25 01:39:11;;;;;;;13.00;10.20;;;;;;;12.59;81.44;99327.73;225347;1283;22544;-75
2023/05/25 01:44:18;;;;;;;10.60;9.10;;;;;;;12.55;81.36;99331.36;225413;1283;25239;-76
2023/05/25 01:49:51;;;;;;;12.70;9.70;;;;;;;12.52;81.29;99327.52;225320;1283;22608;-75
2023/05/25 01:55:05;;;;;;;15.00;9.80;;;;;;;12.49;81.33;99330.73;225372;1283;22543;-75
2023/05/25 02:00:20;;;;;;;11.60;10.00;;;;;;;12.47;81.24;99330.48;225515;1279;23682;-75
2023/05/25 02:05:22;;;;;;;14.40;9.60;;;;;;;12.45;81.29;99327.58;225484;1283;25451;-75
2023/05/25 02:10:25;;;;;;;10.40;9.20;;;;;;;12.41;81.39;99326.05;225405;1283;22575;-75
2023/05/25 02:15:32;;;;;;;11.20;9.70;;;;;;;12.39;81.51;99322.40;225305;1277;22759;-76
2023/05/25 02:20:36;;;;;;;13.20;9.60;;;;;;;12.38;81.46;99328.58;225459;1279;22537;-75
2023/05/25 02:25:38;;;;;;;13.40;9.80;;;;;;;12.35;81.64;99330.06;225369;1281;22556;-74
2023/05/25 02:30:40;;;;;;;12.30;9.50;;;;;;;12.32;81.68;99327.90;225409;1279;25946;-74
2023/05/25 02:35:45;;;;;;;14.30;9.80;;;;;;;12.29;81.77;99324.98;225332;1282;26174;-75
2023/05/25 02:40:57;;;;;;;11.00;9.20;;;;;;;12.28;81.85;99326.48;225376;1281;22557;-74
2023/05/25 02:46:08;;;;;;;12.00;9.90;;;;;;;12.27;81.90;99331.07;225316;1283;23068;-75
2023/05/25 02:51:14;;;;;;;11.60;9.70;;;;;;;12.26;81.94;99331.95;225464;1279;22547;-75
2023/05/25 02:56:30;;;;;;;16.10;9.90;;;;;;;12.24;82.02;99323.82;225395;1278;25940;-75
2023/05/25 03:01:34;;;;;;;11.70;9.60;;;;;;;12.22;82.04;99321.66;225444;1283;22547;-75
2023/05/25 03:06:50;;;;;;;11.50;9.60;;;;;;;12.20;81.90;99320.95;225381;1283;23456;-75
2023/05/25 03:12:02;;;;;;;13.70;9.30;;;;;;;12.19;81.87;99326.72;225448;1275;22547;-74
2023/05/25 03:17:05;;;;;;;12.30;10.40;;;;;;;12.17;81.89;99325.71;225316;1283;26081;-75
2023/05/25 03:22:17;;;;;;;14.90;10.30;;;;;;;12.18;81.99;99328.33;225432;1283;22543;-75
2023/05/25 03:27:20;;;;;;;13.00;10.60;;;;;;;12.17;81.91;99329.63;225391;1281;22558;-74
2023/05/25 03:32:23;;;;;;;13.50;10.00;;;;;;;12.17;82.04;99331.63;225414;1281;22543;-74
2023/05/25 03:37:29;;;;;;;13.60;10.60;;;;;;;12.16;81.99;99330.45;225413;1281;23786;-75
2023/05/25 03:42:36;;;;;;;14.60;10.50;;;;;;;12.15;82.08;99331.98;225378;1283;22945;-75
2023/05/25 03:47:39;;;;;;;11.50;10.10;;;;;;;12.15;81.99;99333.95;225395;1278;22550;-75
2023/05/25 03:52:41;;;;;;;11.90;9.70;;;;;;;12.16;82.01;99341.16;225379;1283;22679;-75
2023/05/25 03:57:44;;;;;;;15.70;10.70;;;;;;;12.13;82.24;99344.13;225385;1281;26227;-75
2023/05/25 04:02:47;;;;;;;15.40;11.60;;;;;;;12.07;82.50;99348.20;225304;1283;22554;-75
2023/05/25 04:07:50;;;;;;;15.70;10.90;;;;;;;12.02;82.66;99350.34;225360;1278;22547;-75
2023/05/25 04:12:56;;;;;;;15.20;11.50;;;;;;;11.97;82.73;99356.63;225453;1280;23014;-75
2023/05/25 04:18:01;;;;;;;15.40;11.10;;;;;;;11.93;82.95;99362.36;225347;1283;22542;-75
2023/05/25 04:23:05;;;;;;;18.80;12.10;;;;;;;11.90;82.88;99371.40;225383;1281;22539;-75
2023/05/25 04:28:08;;;;;;;14.80;12.70;;;;;;;11.91;83.01;99377.84;225396;1281;22601;-74
2023/05/25 04:33:20;;;;;;;15.20;11.50;;;;;;;11.92;83.17;99379.61;225419;1277;22538;-75
2023/05/25 04:38:34;;;;;;;20.80;12.00;;;;;;;11.92;83.09;99380.14;225427;1259;22554;-75
2023/05/25 04:43:37;;;;;;;15.40;11.40;;;;;;;11.91;83.04;99382.90;225456;1278;22566;-75
2023/05/25 04:48:47;;;;;;;15.40;11.90;;;;;;;11.90;83.05;99387.93;225441;1281;22575;-74
2023/05/25 04:53:50;;;;;;;21.20;13.60;;;;;;;11.87;83.00;99398.73;225349;1281;25279;-74
2023/05/25 04:58:52;;;;;;;21.20;15.40;;;;;;;11.84;82.99;99396.98;225304;1278;25270;-74
2023/05/25 05:03:58;;;;;;;18.80;14.50;;;;;;;11.82;83.06;99397.47;225379;1281;22648;-75
2023/05/25 05:09:02;;;;;;;19.20;14.90;;;;;;;11.79;83.08;99400.77;225405;1281;22549;-75
2023/05/25 05:14:07;;;;;;;20.60;14.70;;;;;;;11.80;83.24;99406.48;225494;1280;22539;-75
2023/05/25 05:19:10;;;;;;;21.00;15.00;;;;;;;11.84;83.23;99412.08;225529;1275;25226;-75
2023/05/25 05:24:15;;;;;;;19.20;15.20;;;;;;;11.87;83.24;99421.75;225314;1280;22547;-75
2023/05/25 05:29:18;;;;;;;19.20;14.90;;;;;;;11.90;83.26;99423.26;225379;1278;22542;-75
2023/05/25 05:34:21;;;;;;;19.80;14.80;;;;;;;11.91;83.14;99423.39;225337;1283;22525;-75
2023/05/25 05:39:26;;;;;;;20.30;14.10;;;;;;;11.91;83.04;99416.63;225186;1265;22529;-75
2023/05/25 05:44:29;;;;;;;19.30;14.40;;;;;;;11.88;83.01;99422.27;225180;1281;22543;-76
2023/05/25 05:49:33;;;;;;;18.60;13.90;;;;;;;11.90;83.08;99422.79;225181;1283;22920;-75
2023/05/25 05:54:37;;;;;;;16.10;13.40;;;;;;;11.93;83.09;99430.11;225172;1281;22579;-76
2023/05/25 05:59:54;;;;;;;18.30;14.80;;;;;;;12.03;83.04;99434.61;225108;1275;22628;-76
2023/05/25 06:04:57;;;;;;;16.90;13.60;;;;;;;12.03;82.87;99439.95;224707;1271;138866;-74
2023/05/25 06:09:59;;;;;;;16.80;13.10;;;;;;;12.04;82.73;99442.98;224861;1267;22838;-74
2023/05/25 06:15:02;;;;;;;16.70;13.50;;;;;;;12.06;82.59;99446.84;224957;1268;138559;-76
2023/05/25 06:20:09;;;;;;;16.20;12.90;;;;;;;12.04;82.51;99454.27;224755;1261;138589;-75
2023/05/25 06:25:39;;;;;;;;;;;;;;;12.00;82.33;99456.73;224702;1278;138863;-76
2023/05/25 06:30:42;;;;;;;16.90;11.60;;;;;;;11.92;82.26;99464.12;224461;1265;125059;-76
2023/05/25 06:35:51;;;;;;;15.00;11.10;;;;;;;11.87;82.24;99463.10;224488;1268;139707;-76
2023/05/25 06:41:01;;;;;;;14.70;11.50;;;;;;;11.85;82.30;99470.02;224463;1272;139068;-75
2023/05/25 06:46:03;;;;;;;13.70;10.40;;;;;;;11.87;82.44;99468.34;224543;1265;22557;-74
2023/05/25 06:51:15;;;;;;;12.00;10.20;;;;;;;11.92;82.47;99471.48;224480;1271;138698;-75
2023/05/25 06:56:18;;;;;;;10.70;9.30;;;;;;;12.00;82.58;99469.09;224418;1278;138734;-74
2023/05/25 07:01:24;;;;;;;11.50;8.70;;;;;;;12.12;82.36;99474.23;224711;1271;139319;-74
2023/05/25 07:06:26;;;;;;;9.90;7.20;;;;;;;12.22;82.09;99473.17;224885;1272;138815;-74
2023/05/25 07:11:29;;;;;;;9.10;7.40;;;;;;;12.27;81.68;99478.92;224876;1265;138673;-76
2023/05/25 07:16:31;;;;;;;11.40;8.40;;;;;;;12.32;81.50;99484.27;224831;1265;138588;-78
2023/05/25 07:21:36;;;;;;;8.80;7.90;;;;;;;12.33;81.24;99484.45;224940;1274;22645;-78
2023/05/25 07:26:49;;;;;;;12.10;9.10;;;;;;;12.30;81.27;99482.48;224990;1269;138242;-79
2023/05/25 07:31:51;;;;;;;12.10;9.60;;;;;;;12.32;81.43;99488.72;224979;1269;138546;-78
2023/05/25 07:37:32;;;;;;;11.50;9.10;;;;;;;12.38;81.65;99489.17;225033;1281;138540;-78
2023/05/25 07:42:34;;;;;;;13.70;10.50;;;;;;;12.45;81.57;99498.20;224988;1271;139114;-78
2023/05/25 07:47:40;;;;;;;12.60;10.60;;;;;;;12.50;81.39;99502.95;224947;1271;138786;-81
2023/05/25 07:52:44;;;;;;;10.80;9.40;;;;;;;12.55;81.34;99504.39;225073;1268;138889;-80
2023/05/25 07:57:46;;;;;;;12.10;10.70;;;;;;;12.59;81.17;99502.73;225102;1265;23026;-82
2023/05/25 08:02:51;;;;;;;10.20;9.20;;;;;;;12.62;81.10;99499.59;224851;1275;137904;-81
2023/05/25 08:07:54;;;;;;;9.30;7.90;;;;;;;12.71;80.99;99500.33;224714;1271;138675;-76
2023/05/25 08:12:58;;;;;;;10.40;8.40;;;;;;;12.82;80.77;99495.71;224808;1271;138502;-77
2023/05/25 08:18:04;;;;;;;9.00;8.00;;;;;;;12.90;80.49;99494.68;224916;1265;138705;-81
2023/05/25 08:23:08;;;;;;;10.40;8.10;;;;;;;12.99;80.58;99492.67;224786;1271;138415;-78
2023/05/25 08:28:10;;;;;;;9.60;8.30;;;;;;;13.05;80.24;99493.94;225011;1281;138637;-76
2023/05/25 08:33:13;;;;;;;9.70;8.40;;;;;;;13.07;80.20;99490.95;225169;1283;22546;-77
2023/05/25 08:38:15;;;;;;;10.20;9.10;;;;;;;13.21;80.49;99490.06;224883;1276;138273;-78
2023/05/25 08:43:27;;;;;;;9.40;8.00;;;;;;;13.37;80.36;99494.64;224888;1279;138747;-79
2023/05/25 08:48:31;;;;;;;10.40;8.70;;;;;;;13.49;79.96;99498.29;224940;1283;138481;-78
2023/05/25 08:53:44;;;;;;;10.70;9.10;;;;;;;13.57;79.69;99500.64;224823;1280;138668;-78
2023/05/25 08:59:15;;;;;;;11.60;9.30;;;;;;;13.63;79.58;99502.59;224754;1265;138677;-77
2023/05/25 09:04:19;;;;;;;11.30;9.00;;;;;;;13.69;79.45;99498.89;224752;1281;139182;-78
2023/05/25 09:09:22;;;;;;;11.20;9.80;;;;;;;13.75;79.23;99497.27;224868;1268;22565;-76
2023/05/25 09:14:27;;;;;;;10.70;9.50;;;;;;;13.77;79.00;99503.42;224985;1271;138406;-79
2023/05/25 09:19:29;;;;;;;11.90;9.00;;;;;;;13.81;79.00;99507.70;224730;1278;138697;-78
2023/05/25 09:24:35;;;;;;;10.20;8.90;;;;;;;13.89;78.91;99507.94;224909;1279;138742;-77
2023/05/25 09:29:48;;;;;;;10.60;9.10;;;;;;;14.10;78.90;99501.60;224835;1265;138635;-79
2023/05/25 09:34:50;;;;;;;10.10;9.00;;;;;;;14.28;78.72;99500.95;224933;1276;138749;-79
2023/05/25 09:39:52;;;;;;;9.80;8.40;;;;;;;14.41;78.41;99502.25;224719;1271;138964;-78
2023/05/25 09:44:54;;;;;;;8.90;7.90;;;;;;;14.58;78.09;99499.42;224647;1265;138859;-79
2023/05/25 09:49:58;;;;;;;8.80;7.50;;;;;;;14.68;77.45;99504.27;224835;1274;22541;-78
2023/05/25 09:55:09;;;;;;;8.30;7.50;;;;;;;14.74;77.39;99504.55;224917;1281;138157;-79
2023/05/25 10:00:12;;;;;;;10.70;9.00;;;;;;;14.71;76.86;99499.32;224958;1266;138509;-78
2023/05/25 10:05:14;;;;;;;12.20;9.70;;;;;;;14.66;77.14;99503.82;224870;1279;138624;-79
2023/05/25 10:10:17;;;;;;;12.50;10.30;;;;;;;14.71;77.04;99503.83;224902;1283;138579;-79
2023/05/25 10:15:21;;;;;;;11.30;10.00;;;;;;;14.77;76.72;99501.69;224911;1278;138898;-78
2023/05/25 10:20:25;;;;;;;11.60;10.20;;;;;;;14.76;76.56;99498.49;225031;1279;22546;-83
2023/05/25 10:26:08;;;;;;;10.80;8.60;;;;;;;14.85;76.57;99500.13;225108;1271;23142;-82
2023/05/25 10:31:17;;;;;;;9.80;7.90;;;;;;;14.92;76.27;99495.84;225024;1265;138361;-85
2023/05/25 10:36:40;;;;;;;10.30;8.30;;;;;;;15.13;76.85;99499.23;224885;1275;138864;-82
2023/05/25 10:41:44;;;;;;;9.00;8.00;;;;;;;15.33;76.70;99501.13;224739;1267;220025;-81
2023/05/25 10:46:49;;;;;;;10.40;8.00;;;;;;;15.50;76.16;99498.67;224878;1280;138560;-82
2023/05/25 10:51:58;;;;;;;9.40;8.50;;;;;;;15.56;75.86;99501.18;225022;1279;138685;-84
2023/05/25 10:57:15;;;;;;;9.90;8.70;;;;;;;15.55;75.68;99502.48;224965;1283;138469;-80
2023/05/25 11:02:22;;;;;;;9.50;8.50;;;;;;;15.58;75.98;99505.71;224913;1265;22567;-78
2023/05/25 11:07:24;;;;;;;12.10;9.10;;;;;;;15.73;75.35;99504.77;225050;1265;138433;-78
2023/05/25 11:12:27;;;;;;;11.80;9.40;;;;;;;15.80;75.44;99500.55;224843;1271;138475;-78
2023/05/25 11:17:31;;;;;;;9.70;8.70;;;;;;;15.82;74.88;99498.39;224922;1281;139246;-78
2023/05/25 11:22:36;;;;;;;10.20;9.20;;;;;;;15.90;74.89;99494.27;224802;1272;139348;-77
2023/05/25 11:27:45;;;;;;;10.50;9.10;;;;;;;16.00;74.91;99492.02;224769;1274;138680;-78
2023/05/25 11:32:49;;;;;;;11.60;10.10;;;;;;;16.00;74.68;99491.05;224790;1279;138697;-79
2023/05/25 11:37:54;;;;;;;11.20;10.10;;;;;;;15.88;74.83;99490.51;224887;1283;22546;-77
2023/05/25 11:42:59;;;;;;;11.60;9.70;;;;;;;15.73;74.91;99487.84;224649;1280;139747;-81
2023/05/25 11:48:03;;;;;;;12.40;11.10;;;;;;;15.63;75.18;99490.12;224952;1265;137900;-79
2023/05/25 11:53:06;;;;;;;13.60;11.60;;;;;;;15.52;75.12;99483.56;224929;1277;138871;-79
2023/05/25 11:58:08;;;;;;;13.70;11.70;;;;;;;15.44;75.29;99480.26;224814;1279;138789;-83
2023/05/25 12:03:31;;;;;;;17.20;13.20;;;;;;;15.41;75.31;99479.16;224917;1283;139519;-81
2023/05/25 12:08:35;;;;;;;15.20;12.90;;;;;;;15.39;75.27;99476.95;224861;1281;139874;-81
2023/05/25 12:13:39;;;;;;;18.10;13.40;;;;;;;15.51;75.63;99470.82;224802;1284;22551;-78
2023/05/25 12:18:42;;;;;;;13.60;11.70;;;;;;;15.70;75.48;99467.50;224876;1281;138644;-77
2023/05/25 12:23:45;;;;;;;15.60;12.60;;;;;;;15.82;75.31;99470.25;224853;1282;139192;-79
2023/05/25 12:29:09;;;;;;;13.20;11.70;;;;;;;15.95;74.87;99471.94;224936;1281;138907;-79
2023/05/25 12:34:12;;;;;;;13.50;11.70;;;;;;;15.98;74.73;99470.80;225000;1272;138959;-79
2023/05/25 12:39:30;;;;;;;13.80;11.40;;;;;;;16.07;74.97;99466.88;224918;1270;138828;-80
2023/05/25 12:44:34;;;;;;;12.60;11.30;;;;;;;16.10;74.64;99464.17;224924;1266;139283;-75
2023/05/25 12:49:37;;;;;;;16.70;13.80;;;;;;;16.08;74.73;99459.51;225080;1281;22542;-77
2023/05/25 12:54:44;;;;;;;15.90;13.80;;;;;;;16.03;74.60;99457.25;224999;1273;138511;-76
2023/05/25 12:59:55;;;;;;;15.50;13.40;;;;;;;15.94;74.54;99448.68;225026;1283;138886;-76
2023/05/25 13:04:57;;;;;;;15.60;12.90;;;;;;;15.93;74.83;99448.36;224770;1282;138944;-76
2023/05/25 13:09:59;;;;;;;15.20;13.60;;;;;;;15.92;74.87;99449.22;224892;1270;138998;-78
2023/05/25 13:15:08;;;;;;;17.20;13.70;;;;;;;15.89;74.97;99447.54;224811;1260;138770;-80
2023/05/25 13:20:14;;;;;;;14.80;12.80;;;;;;;15.90;75.05;99441.17;224972;1280;22564;-78
2023/05/25 13:25:18;;;;;;;16.70;13.00;;;;;;;15.92;75.11;99446.76;224834;1272;138634;-81
2023/05/25 13:30:22;;;;;;;13.80;12.20;;;;;;;15.96;75.11;99440.33;224855;1283;138883;-77
2023/05/25 13:35:40;;;;;;;15.40;13.20;;;;;;;15.98;74.73;99440.61;224607;1262;138910;-79
2023/05/25 13:40:44;;;;;;;15.70;14.00;;;;;;;16.03;74.90;99440.60;224556;1260;138903;-80
2023/05/25 13:45:46;;;;;;;14.20;12.60;;;;;;;16.12;74.71;99441.30;224698;1261;138947;-78
2023/05/25 13:50:49;;;;;;;14.70;12.90;;;;;;;16.19;74.56;99442.33;224722;1277;138894;-79
2023/05/25 13:55:51;;;;;;;14.20;12.70;;;;;;;16.09;74.40;99441.42;224694;1263;22568;-76
2023/05/25 14:00:53;;;;;;;16.10;14.40;;;;;;;15.93;74.45;99441.14;224685;1280;138522;-78
2023/05/25 14:05:55;;;;;;;16.30;14.40;;;;;;;15.82;74.91;99438.20;224761;1276;138993;-78
2023/05/25 14:10:57;;;;;;;16.40;14.70;;;;;;;15.77;74.94;99438.27;224696;1279;138758;-78
2023/05/25 14:15:59;;;;;;;18.90;14.50;;;;;;;15.76;75.02;99436.30;225026;1268;139227;-78
2023/05/25 14:21:02;;;;;;;18.00;15.20;;;;;;;15.74;75.37;99427.54;224994;1277;22553;-79
2023/05/25 14:26:04;;;;;;;16.70;13.90;;;;;;;15.75;75.44;99423.31;225051;1279;23662;-78
2023/05/25 14:31:06;;;;;;;15.00;13.40;;;;;;;15.79;75.41;99418.52;225106;1282;22629;-78
2023/05/25 14:36:09;;;;;;;16.20;13.00;;;;;;;15.91;75.46;99409.66;225363;1280;22547;-78
2023/05/25 14:41:11;;;;;;;15.30;13.70;;;;;;;16.03;75.57;99409.92;225405;1283;24206;-80
2023/05/25 14:46:17;;;;;;;15.40;13.40;;;;;;;16.06;75.41;99416.10;225372;1283;22544;-79
2023/05/25 14:51:19;;;;;;;15.90;14.10;;;;;;;16.04;75.38;99420.95;225332;1282;22550;-78
2023/05/25 14:56:22;;;;;;;16.90;14.20;;;;;;;16.00;75.26;99418.67;225367;1277;22569;-78
2023/05/25 15:01:28;;;;;;;15.80;13.40;;;;;;;15.92;75.25;99415.55;225362;1283;22553;-80
2023/05/25 15:06:33;;;;;;;16.90;13.60;;;;;;;15.81;75.44;99411.84;225418;1279;22649;-77
2023/05/25 15:11:35;;;;;;;15.40;13.90;;;;;;;15.76;75.47;99411.05;225399;1277;22530;-78
2023/05/25 15:16:37;;;;;;;16.20;13.60;;;;;;;15.72;75.67;99406.08;225293;1277;22506;-78
2023/05/25 15:21:40;;;;;;;16.30;14.60;;;;;;;15.73;75.97;99406.23;225357;1283;22593;-78
2023/05/25 15:26:42;;;;;;;15.50;13.90;;;;;;;15.74;76.00;99405.11;225434;1283;22564;-78
2023/05/25 15:31:45;;;;;;;15.30;12.20;;;;;;;15.78;75.90;99407.24;225342;1277;22543;-79
2023/05/25 15:36:49;;;;;;;14.70;12.60;;;;;;;15.81;75.85;99402.00;225450;1283;23033;-78
2023/05/25 15:41:51;;;;;;;15.70;13.50;;;;;;;15.80;76.11;99396.66;225407;1281;22554;-79
2023/05/25 15:46:53;;;;;;;17.90;13.40;;;;;;;15.80;76.01;99396.80;225326;1283;22690;-78
2023/05/25 15:51:55;;;;;;;17.10;14.00;;;;;;;15.79;76.00;99394.38;225381;1283;25271;-78
2023/05/25 15:56:56;;;;;;;15.30;13.40;;;;;;;15.76;76.12;99393.96;225354;1283;22572;-78
2023/05/25 16:01:58;;;;;;;16.80;13.60;;;;;;;15.75;76.17;99396.98;225327;1281;23519;-78
2023/05/25 16:07:01;;;;;;;14.50;13.00;;;;;;;15.79;76.59;99390.40;225322;1283;25446;-78
2023/05/25 16:12:06;;;;;;;14.40;12.90;;;;;;;15.89;76.38;99390.52;225306;1281;22565;-78
2023/05/25 16:17:08;;;;;;;15.50;13.90;;;;;;;15.98;76.34;99391.08;225379;1283;22601;-77
2023/05/25 16:22:10;;;;;;;15.00;13.20;;;;;;;16.08;76.30;99391.79;225325;1281;22676;-78
2023/05/25 16:27:12;;;;;;;15.00;13.50;;;;;;;16.15;75.97;99392.52;225395;1283;22543;-78
2023/05/25 16:32:14;;;;;;;16.40;13.20;;;;;;;16.05;75.74;99394.30;225349;1275;24263;-76
2023/05/25 16:37:16;;;;;;;15.60;13.80;;;;;;;15.99;75.99;99387.88;225310;1281;22582;-78
2023/05/25 16:42:18;;;;;;;22.40;19.20;;;;;;;16.02;76.21;99387.99;225379;1279;25324;-77
2023/05/25 16:47:21;;;;;;;15.90;13.30;;;;;;;16.09;76.30;99378.45;225419;1279;22559;-79
2023/05/25 16:52:23;;;;;;;15.80;14.00;;;;;;;16.10;76.56;99382.80;225293;1281;22564;-78
2023/05/25 16:57:26;;;;;;;16.70;13.80;;;;;;;16.06;76.35;99381.41;225353;1279;24243;-78
2023/05/25 17:02:28;;;;;;;14.60;12.80;;;;;;;15.96;76.23;99382.14;225319;1277;22544;-79
2023/05/25 17:07:32;;;;;;;15.60;12.80;;;;;;;15.88;76.44;99380.46;225412;1275;22539;-78
2023/05/25 17:12:34;;;;;;;14.20;12.70;;;;;;;15.78;76.26;99378.79;225387;1280;22531;-79
2023/05/25 17:17:36;;;;;;;15.40;13.80;;;;;;;15.72;76.74;99381.42;225293;1283;22559;-78
2023/05/25 17:22:38;;;;;;;16.20;13.50;;;;;;;15.65;76.85;99382.21;225397;1279;22546;-79
2023/05/25 17:27:40;;;;;;;17.00;13.10;;;;;;;15.64;77.19;99383.23;225313;1281;22534;-78
2023/05/25 17:32:42;;;;;;;15.10;12.80;;;;;;;15.64;77.36;99382.70;225351;1275;24260;-79
2023/05/25 17:37:44;;;;;;;14.90;12.20;;;;;;;15.58;77.23;99375.86;225371;1263;22569;-78
2023/05/25 17:42:46;;;;;;;16.50;13.20;;;;;;;15.51;77.11;99375.38;225345;1277;22573;-77
2023/05/25 17:47:48;;;;;;;13.90;12.30;;;;;;;15.46;77.38;99378.36;225323;1278;22542;-77
2023/05/25 17:52:51;;;;;;;15.60;12.90;;;;;;;15.44;77.47;99385.38;225396;1283;26057;-77
2023/05/25 17:57:53;;;;;;;14.50;12.80;;;;;;;15.39;77.48;99391.89;225313;1279;22576;-78
2023/05/25 18:02:55;;;;;;;18.50;12.90;;;;;;;15.32;77.38;99388.23;225330;1280;22560;-78
2023/05/25 18:07:57;;;;;;;15.60;13.00;;;;;;;15.22;77.74;99383.48;225329;1279;25332;-77
2023/05/25 18:12:59;;;;;;;16.30;14.10;;;;;;;15.17;77.93;99380.92;225346;1282;22923;-78
2023/05/25 18:18:04;;;;;;;15.50;13.70;;;;;;;15.13;77.96;99387.39;225353;1283;22564;-78
2023/05/25 18:23:07;;;;;;;19.20;14.00;;;;;;;15.06;78.07;99392.66;225317;1281;22545;-78
2023/05/25 18:28:11;;;;;;;15.60;13.80;;;;;;;14.98;78.11;99395.92;225344;1281;22602;-77
2023/05/25 18:33:13;;;;;;;16.10;12.80;;;;;;;14.89;78.21;99396.88;225368;1277;22568;-78
2023/05/25 18:38:15;;;;;;;21.60;15.10;;;;;;;14.81;78.55;99397.27;225363;1281;22569;-78
2023/05/25 18:43:17;;;;;;;21.90;15.80;;;;;;;14.75;78.99;99404.45;225336;1280;22557;-78
2023/05/25 18:48:19;;;;;;;19.20;14.30;;;;;;;14.70;79.02;99410.89;225337;1280;22575;-78
2023/05/25 18:53:22;;;;;;;16.10;14.00;;;;;;;14.64;79.21;99413.62;225385;1283;22546;-80
2023/05/25 18:58:23;;;;;;;16.50;14.40;;;;;;;14.58;79.23;99413.24;225343;1281;22562;-77
2023/05/25 19:03:26;;;;;;;15.80;13.70;;;;;;;14.51;79.24;99415.20;225354;1276;22531;-80
2023/05/25 19:08:28;;;;;;;20.60;15.80;;;;;;;14.46;79.66;99418.02;225381;1275;22623;-79
2023/05/25 19:13:30;;;;;;;19.60;16.30;;;;;;;14.40;79.71;99419.25;225386;1279;22544;-78
2023/05/25 19:18:32;;;;;;;20.20;16.70;;;;;;;14.36;79.92;99422.58;225385;1279;25243;-78
2023/05/25 19:23:34;;;;;;;22.00;17.10;;;;;;;14.33;80.09;99418.79;225445;1279;22558;-78
2023/05/25 19:28:36;;;;;;;22.10;17.80;;;;;;;14.27;80.26;99415.56;225375;1281;22550;-78
2023/05/25 19:33:38;;;;;;;23.90;18.20;;;;;;;14.23;80.19;99412.88;225351;1275;22554;-79
2023/05/25 19:38:40;;;;;;;18.30;15.90;;;;;;;14.19;80.76;99414.84;225342;1283;22575;-77
2023/05/25 19:43:43;;;;;;;18.30;16.40;;;;;;;14.16;80.74;99422.45;225420;1279;23753;-78
2023/05/25 19:48:45;;;;;;;19.90;16.60;;;;;;;14.13;80.89;99424.51;225384;1279;22538;-78
2023/05/25 19:53:47;;;;;;;22.60;18.40;;;;;;;14.09;81.10;99421.59;225330;1281;22640;-79
2023/05/25 19:58:49;;;;;;;20.40;17.70;;;;;;;14.07;81.20;99417.99;225336;1281;22551;-79
2023/05/25 20:03:54;;;;;;;19.20;17.10;;;;;;;14.03;81.11;99419.67;225320;1277;22653;-77
2023/05/25 20:08:57;;;;;;;19.10;16.70;;;;;;;13.99;81.25;99415.23;225356;1281;25966;-79
2023/05/25 20:14:02;;;;;;;19.70;17.00;;;;;;;13.96;81.48;99412.71;225317;1281;22627;-78
2023/05/25 20:19:09;;;;;;;21.30;18.90;;;;;;;13.91;81.55;99414.94;225315;1281;22543;-78
2023/05/25 20:24:21;;;;;;;20.50;18.30;;;;;;;13.87;81.40;99418.13;225395;1279;22564;-78
2023/05/25 20:29:26;;;;;;;21.30;18.60;;;;;;;13.80;81.51;99416.80;225328;1281;22557;-79
2023/05/25 20:34:32;;;;;;;;;;;;;;;13.72;81.60;99418.50;225382;1283;22540;-78
2023/05/25 20:39:35;;;;;;;25.00;20.20;;;;;;;13.66;81.88;99418.24;225423;1283;22555;-79
2023/05/25 20:44:40;;;;;;;22.80;19.30;;;;;;;13.62;82.01;99417.26;225269;1282;22676;-77
2023/05/25 20:49:43;;;;;;;22.10;18.90;;;;;;;13.62;82.09;99416.97;225371;1279;22711;-78
2023/05/25 20:54:47;;;;;;;24.40;19.40;;;;;;;13.62;82.15;99413.65;225333;1281;22553;-78
2023/05/25 20:59:53;;;;;;;23.10;19.00;;;;;;;13.63;82.24;99408.59;225312;1279;22557;-79
2023/05/25 21:05:04;;;;;;;23.10;19.20;;;;;;;13.65;82.37;99416.41;225317;1280;22610;-78
2023/05/25 21:10:14;;;;;;;25.80;19.90;;;;;;;13.65;82.47;99417.58;225424;1280;22624;-78
2023/05/25 21:15:31;;;;;;;23.00;20.40;;;;;;;13.63;82.39;99415.83;225361;1283;22570;-78
2023/05/25 21:20:38;;;;;;;22.20;19.80;;;;;;;13.61;82.21;99415.52;225373;1283;22556;-77
2023/05/25 21:25:41;;;;;;;26.60;22.30;;;;;;;13.59;82.07;99416.27;225260;1281;22546;-77
2023/05/25 21:30:48;;;;;;;23.40;20.90;;;;;;;13.56;82.30;99421.31;225407;1279;22556;-72
2023/05/25 21:36:01;;;;;;;24.60;21.30;;;;;;;13.54;82.52;99419.91;225420;1283;22637;-73
2023/05/25 21:41:14;;;;;;;25.00;21.10;;;;;;;13.54;82.49;99413.16;225482;1280;22614;-72
2023/05/25 21:46:20;;;;;;;24.60;21.90;;;;;;;13.53;82.59;99417.00;225404;1278;22597;-72
2023/05/25 21:51:33;;;;;;;27.70;22.50;;;;;;;13.51;82.68;99420.70;225380;1279;24903;-74
2023/05/25 21:56:50;;;;;;;25.60;22.70;;;;;;;13.51;82.67;99422.94;225335;1264;22572;-73
2023/05/25 22:02:13;;;;;;;26.00;22.50;;;;;;;13.49;82.57;99420.69;225393;1283;22539;-72
2023/05/25 22:07:29;;;;;;;28.40;23.20;;;;;;;13.46;82.65;99424.30;225392;1283;22532;-73
2023/05/25 22:12:35;;;;;;;27.60;22.80;;;;;;;13.45;82.66;99425.23;225398;1283;22568;-73
2023/05/25 22:17:40;;;;;;;26.60;23.70;;;;;;;13.41;82.74;99428.41;225366;1281;22978;-73
2023/05/25 22:23:03;;;;;;;26.90;24.00;;;;;;;13.38;82.93;99427.06;225319;1281;22558;-72
2023/05/25 22:28:09;;;;;;;29.20;25.50;;;;;;;13.35;82.97;99424.77;225363;1283;22563;-72
2023/05/25 22:33:16;;;;;;;29.80;24.30;;;;;;;13.33;83.01;99420.63;225380;1283;25483;-73
2023/05/25 22:38:24;;;;;;;30.20;25.00;;;;;;;13.30;82.94;99423.77;221332;1278;5383683;-72
2023/05/25 22:43:54;;;;;;;27.90;23.70;;;;;;;13.26;82.97;99427.52;225362;1283;22575;-73
2023/05/25 22:49:05;;;;;;;27.30;23.70;;;;;;;13.23;83.13;99424.84;225437;1279;22576;-72
2023/05/25 22:54:25;;;;;;;;;;;;;;;;;;;;;
2023/05/25 22:59:50;;;;;;;30.40;25.60;;;;;;;13.23;83.26;99419.45;225346;1283;22706;-72
2023/05/25 23:05:08;;;;;;;31.20;26.00;;;;;;;13.26;83.57;99420.39;225425;1279;22550;-72
2023/05/25 23:10:25;;;;;;;28.70;24.90;;;;;;;13.29;83.49;99423.20;225499;1283;24219;-73
2023/05/25 23:15:42;;;;;;;32.10;27.60;;;;;;;13.28;83.24;99421.55;225475;1283;22539;-72
2023/05/25 23:20:58;;;;;;;29.50;25.50;;;;;;;13.27;83.48;99416.36;225268;1281;22573;-72